Time;durP1;ratioP1;P1;durP2;ratioP2;P2;SDS_P1;SDS_P2;PMS_P1;PMS_P2;Temp;Humidity;BMP_temperature;BMP_pressure;BME280_temperature;BME280_humidity;BME280_pressure;Samples;Min_cycle;Max_cycle;Signal;HPM_P1;HPM_P2
2023/08/15 00:00:11;;;;;;;1.70;1.10;;;;;;;;;;5112804;28;20043;-59
2023/08/15 00:02:40;;;;;;;2.47;1.38;;;;;;;;;;5113668;28;20047;-59
2023/08/15 00:05:10;;;;;;;2.03;1.23;;;;;;;;;;5112380;28;20052;-60
2023/08/15 00:07:37;;;;;;;2.47;1.38;;;;;;;;;;5112581;28;20047;-58
2023/08/15 00:10:06;;;;;;;2.35;1.65;;;;;;;;;;5113934;28;20047;-60
2023/08/15 00:12:33;;;;;;;2.50;1.00;;;;;;;;;;5113418;28;20056;-60
2023/08/15 00:15:00;;;;;;;2.20;1.25;;;;;;;;;;5115398;28;20484;-60
2023/08/15 00:17:27;;;;;;;2.25;1.35;;;;;;;;;;5114700;28;20055;-59
2023/08/15 00:19:56;;;;;;;2.15;1.20;;;;;;;;;;5113382;28;20058;-60
2023/08/15 00:22:23;;;;;;;1.95;1.00;;;;;;;;;;5115936;28;20056;-59
2023/08/15 00:24:49;;;;;;;3.60;1.67;;;;;;;;;;5115593;28;20052;-59
2023/08/15 00:27:18;;;;;;;2.80;1.20;;;;;;;;;;5113957;28;21167;-61
2023/08/15 00:29:45;;;;;;;3.50;1.65;;;;;;;;;;5114967;28;20055;-59
2023/08/15 00:32:12;;;;;;;1.77;1.25;;;;;;;;;;5113569;28;20054;-61
2023/08/15 00:34:38;;;;;;;2.38;1.50;;;;;;;;;;5113366;28;20060;-60
2023/08/15 00:37:07;;;;;;;2.28;1.05;;;;;;;;;;5114391;28;20051;-59
2023/08/15 00:39:33;;;;;;;2.10;1.30;;;;;;;;;;5113046;28;20416;-60
2023/08/15 00:42:00;;;;;;;3.00;1.13;;;;;;;;;;5113268;28;20054;-59
2023/08/15 00:44:27;;;;;;;2.80;1.65;;;;;;;;;;5115440;28;20055;-59
2023/08/15 00:46:54;;;;;;;2.88;1.25;;;;;;;;;;5110519;28;20373;-60
2023/08/15 00:49:21;;;;;;;2.88;1.65;;;;;;;;;;5111387;28;20070;-60
2023/08/15 00:51:48;;;;;;;6.53;1.52;;;;;;;;;;5112537;28;20413;-60
2023/08/15 00:54:16;;;;;;;2.40;1.17;;;;;;;;;;5112515;28;20047;-60
2023/08/15 00:56:43;;;;;;;2.13;1.53;;;;;;;;;;5113699;28;20047;-60
2023/08/15 00:59:10;;;;;;;2.58;1.25;;;;;;;;;;5113364;28;20416;-59
2023/08/15 01:01:37;;;;;;;1.85;1.30;;;;;;;;;;5113512;28;20055;-60
2023/08/15 01:04:04;;;;;;;1.73;1.30;;;;;;;;;;5109978;28;20499;-59
2023/08/15 01:06:31;;;;;;;3.03;1.30;;;;;;;;;;5111834;28;20059;-60
2023/08/15 01:08:58;;;;;;;2.33;1.27;;;;;;;;;;5114881;28;20055;-59
2023/08/15 01:11:30;;;;;;;2.45;1.35;;;;;;;;;;5113142;28;20055;-59
2023/08/15 01:13:59;;;;;;;2.10;1.20;;;;;;;;;;5112610;27;20062;-59
2023/08/15 01:16:29;;;;;;;1.80;1.20;;;;;;;;;;5112591;28;20051;-60
2023/08/15 01:18:57;;;;;;;2.42;1.10;;;;;;;;;;5114443;27;20503;-59
2023/08/15 01:21:27;;;;;;;1.73;1.13;;;;;;;;;;5124852;27;20051;-60
2023/08/15 01:23:56;;;;;;;2.20;1.30;;;;;;;;;;5113120;28;20043;-60
2023/08/15 01:26:23;;;;;;;1.92;1.20;;;;;;;;;;5111014;28;20047;-60
2023/08/15 01:28:50;;;;;;;2.08;1.13;;;;;;;;;;5113309;28;20059;-59
2023/08/15 01:31:20;;;;;;;2.92;1.42;;;;;;;;;;5112543;28;20066;-59
2023/08/15 01:33:51;;;;;;;2.92;1.55;;;;;;;;;;5111120;28;20048;-60
2023/08/15 01:36:22;;;;;;;2.53;1.40;;;;;;;;;;5098275;28;20055;-60
2023/08/15 01:38:51;;;;;;;2.08;1.13;;;;;;;;;;5113844;28;20404;-60
2023/08/15 01:41:20;;;;;;;3.05;1.55;;;;;;;;;;5111454;28;20393;-60
2023/08/15 01:43:48;;;;;;;1.75;1.15;;;;;;;;;;5111188;28;20090;-60
2023/08/15 01:46:14;;;;;;;2.00;1.20;;;;;;;;;;5110611;28;20051;-60
2023/08/15 01:48:42;;;;;;;2.75;1.30;;;;;;;;;;5112818;28;20051;-59
2023/08/15 01:51:09;;;;;;;2.60;1.38;;;;;;;;;;5110631;28;20048;-59
2023/08/15 01:53:36;;;;;;;2.22;1.33;;;;;;;;;;5112824;28;20388;-60
2023/08/15 01:56:03;;;;;;;2.05;1.52;;;;;;;;;;5110174;28;20060;-59
2023/08/15 01:58:32;;;;;;;1.83;1.30;;;;;;;;;;5112007;28;20047;-60
2023/08/15 02:00:59;;;;;;;2.53;1.33;;;;;;;;;;5111699;28;20090;-60
2023/08/15 02:03:26;;;;;;;3.33;1.83;;;;;;;;;;5112102;28;20062;-60
2023/08/15 02:05:53;;;;;;;2.65;1.35;;;;;;;;;;5109439;28;20043;-59
2023/08/15 02:08:20;;;;;;;2.88;1.63;;;;;;;;;;5112685;28;20054;-60
2023/08/15 02:10:47;;;;;;;4.20;1.40;;;;;;;;;;5112002;28;20048;-60
2023/08/15 02:13:14;;;;;;;2.03;1.20;;;;;;;;;;5110334;28;20048;-60
2023/08/15 02:15:44;;;;;;;3.20;1.70;;;;;;;;;;5110565;28;20173;-59
2023/08/15 02:18:11;;;;;;;2.40;1.58;;;;;;;;;;5112761;28;20040;-60
2023/08/15 02:20:38;;;;;;;2.10;1.20;;;;;;;;;;5110491;28;20109;-60
2023/08/15 02:23:05;;;;;;;1.98;1.38;;;;;;;;;;5111605;28;20044;-60
2023/08/15 02:25:31;;;;;;;2.20;1.30;;;;;;;;;;5110732;28;20058;-60
2023/08/15 02:28:00;;;;;;;2.97;1.63;;;;;;;;;;5110141;28;20507;-59
2023/08/15 02:30:27;;;;;;;2.70;1.60;;;;;;;;;;5111972;28;20079;-60
2023/08/15 02:32:55;;;;;;;2.17;1.23;;;;;;;;;;5114876;27;20054;-60
2023/08/15 02:35:22;;;;;;;2.40;1.30;;;;;;;;;;5108518;28;20051;-61
2023/08/15 02:37:49;;;;;;;2.30;1.20;;;;;;;;;;5111865;28;20507;-60
2023/08/15 02:40:20;;;;;;;2.95;1.63;;;;;;;;;;5109915;28;20055;-60
2023/08/15 02:42:48;;;;;;;2.53;1.52;;;;;;;;;;5108827;28;20055;-59
2023/08/15 02:45:14;;;;;;;3.75;1.50;;;;;;;;;;5110057;28;20054;-59
2023/08/15 02:47:44;;;;;;;2.50;1.30;;;;;;;;;;5103706;28;20048;-60
2023/08/15 02:50:14;;;;;;;2.40;1.27;;;;;;;;;;5108759;28;20066;-60
2023/08/15 02:52:43;;;;;;;2.33;1.40;;;;;;;;;;5112302;28;20051;-61
2023/08/15 02:55:09;;;;;;;2.38;1.38;;;;;;;;;;5110135;28;20051;-60
2023/08/15 02:57:36;;;;;;;2.47;1.60;;;;;;;;;;5109787;28;20051;-60
2023/08/15 03:00:03;;;;;;;2.50;1.60;;;;;;;;;;5108456;28;20063;-60
2023/08/15 03:02:33;;;;;;;2.83;1.60;;;;;;;;;;5109925;28;20047;-59
2023/08/15 03:05:00;;;;;;;2.63;1.30;;;;;;;;;;5111802;28;20388;-60
2023/08/15 03:07:28;;;;;;;1.58;1.27;;;;;;;;;;5106760;28;20039;-60
2023/08/15 03:09:55;;;;;;;3.13;1.52;;;;;;;;;;5109628;28;20051;-60
2023/08/15 03:12:21;;;;;;;2.55;1.58;;;;;;;;;;5110785;28;21256;-60
2023/08/15 03:14:48;;;;;;;3.08;1.33;;;;;;;;;;5110681;28;20079;-60
2023/08/15 03:17:18;;;;;;;2.53;1.67;;;;;;;;;;5111315;28;20054;-60
2023/08/15 03:19:45;;;;;;;2.42;1.52;;;;;;;;;;5115444;28;20416;-59
2023/08/15 03:22:12;;;;;;;2.05;1.30;;;;;;;;;;5112411;28;20048;-60
2023/08/15 03:24:40;;;;;;;2.03;1.23;;;;;;;;;;5113429;28;20048;-59
2023/08/15 03:27:07;;;;;;;2.65;1.73;;;;;;;;;;5114621;28;20052;-60
2023/08/15 03:29:34;;;;;;;2.08;1.30;;;;;;;;;;5116324;28;20496;-58
2023/08/15 03:32:01;;;;;;;1.85;1.10;;;;;;;;;;5114669;28;20061;-57
2023/08/15 03:34:28;;;;;;;3.78;1.27;;;;;;;;;;5112751;28;20060;-60
2023/08/15 03:36:57;;;;;;;2.05;1.27;;;;;;;;;;5112407;28;20464;-60
2023/08/15 03:39:23;;;;;;;2.63;1.50;;;;;;;;;;5112700;28;20397;-60
2023/08/15 03:41:52;;;;;;;2.13;1.20;;;;;;;;;;5116260;28;20051;-60
2023/08/15 03:44:18;;;;;;;1.92;1.20;;;;;;;;;;5113782;28;20062;-59
2023/08/15 03:46:45;;;;;;;1.92;1.10;;;;;;;;;;5114985;28;20056;-60
2023/08/15 03:49:12;;;;;;;3.83;1.60;;;;;;;;;;5115440;28;20043;-61
2023/08/15 03:51:42;;;;;;;4.03;1.92;;;;;;;;;;5114051;28;20055;-59
2023/08/15 03:54:09;;;;;;;2.75;1.48;;;;;;;;;;5114574;28;20062;-60
2023/08/15 03:56:36;;;;;;;2.72;1.77;;;;;;;;;;5114652;28;20058;-60
2023/08/15 03:59:04;;;;;;;2.40;1.63;;;;;;;;;;5115542;28;20043;-59
2023/08/15 04:01:31;;;;;;;2.75;1.60;;;;;;;;;;5111536;28;20496;-59
2023/08/15 04:03:58;;;;;;;2.55;1.50;;;;;;;;;;5113675;28;20055;-59
2023/08/15 04:06:25;;;;;;;2.70;1.63;;;;;;;;;;5113706;28;20058;-60
2023/08/15 04:08:52;;;;;;;3.55;2.15;;;;;;;;;;5113984;28;20054;-60
2023/08/15 04:11:19;;;;;;;4.30;1.90;;;;;;;;;;5112297;27;20067;-60
2023/08/15 04:13:46;;;;;;;2.45;1.60;;;;;;;;;;5113803;28;20052;-60
2023/08/15 04:16:14;;;;;;;3.13;1.80;;;;;;;;;;5111637;28;20051;-60
2023/08/15 04:18:41;;;;;;;4.07;1.92;;;;;;;;;;5110804;28;20412;-59
2023/08/15 04:21:07;;;;;;;4.60;1.90;;;;;;;;;;5112850;28;20048;-60
2023/08/15 04:23:34;;;;;;;3.03;1.67;;;;;;;;;;5111754;28;20054;-60
2023/08/15 04:26:01;;;;;;;2.42;1.27;;;;;;;;;;5109286;28;20055;-60
2023/08/15 04:28:28;;;;;;;3.85;1.50;;;;;;;;;;5108279;28;20052;-60
2023/08/15 04:30:55;;;;;;;26.05;2.20;;;;;;;;;;5109438;28;20058;-60
2023/08/15 04:33:23;;;;;;;4.00;1.90;;;;;;;;;;5111947;28;20071;-61
2023/08/15 04:35:49;;;;;;;3.40;1.58;;;;;;;;;;5110658;28;20067;-61
2023/08/15 04:38:16;;;;;;;2.50;1.63;;;;;;;;;;5111045;28;20393;-61
2023/08/15 04:40:44;;;;;;;3.22;1.60;;;;;;;;;;5109031;28;20439;-63
2023/08/15 04:43:11;;;;;;;2.30;1.10;;;;;;;;;;5113380;28;20056;-63
2023/08/15 04:45:43;;;;;;;3.97;1.30;;;;;;;;;;5112194;28;20071;-64
2023/08/15 04:48:12;;;;;;;3.25;1.85;;;;;;;;;;5113090;28;20052;-64
2023/08/15 04:50:39;;;;;;;;;;;;;;;;;;5107963;28;20066;-64
2023/08/15 04:53:07;;;;;;;3.28;1.45;;;;;;;;;;5112100;28;19919;-65
2023/08/15 04:55:34;;;;;;;4.60;1.45;;;;;;;;;;5115218;28;20047;-65
2023/08/15 04:58:01;;;;;;;4.57;1.80;;;;;;;;;;5122731;27;20039;-65
2023/08/15 05:00:28;;;;;;;4.50;1.92;;;;;;;;;;5110863;27;20468;-64
2023/08/15 05:02:55;;;;;;;4.25;2.00;;;;;;;;;;5115222;28;20056;-64
2023/08/15 05:05:24;;;;;;;5.00;2.10;;;;;;;;;;5113462;28;20063;-64
2023/08/15 05:07:51;;;;;;;3.08;1.63;;;;;;;;;;5114285;28;20052;-65
2023/08/15 05:10:22;;;;;;;6.00;1.95;;;;;;;;;;5108303;28;20058;-64
2023/08/15 05:12:48;;;;;;;4.93;2.13;;;;;;;;;;5108235;28;20052;-65
2023/08/15 05:15:15;;;;;;;5.47;2.25;;;;;;;;;;5108547;28;20051;-65
2023/08/15 05:17:43;;;;;;;3.83;2.10;;;;;;;;;;5107940;28;20076;-65
2023/08/15 05:20:11;;;;;;;4.50;2.22;;;;;;;;;;5110047;28;20514;-65
2023/08/15 05:22:38;;;;;;;4.50;1.90;;;;;;;;;;5110680;28;20047;-65
2023/08/15 05:25:05;;;;;;;4.10;1.63;;;;;;;;;;5113059;28;20051;-65
2023/08/15 05:27:35;;;;;;;3.80;1.50;;;;;;;;;;5113565;28;20404;-65
2023/08/15 05:30:03;;;;;;;4.78;1.73;;;;;;;;;;5112880;28;20048;-65
2023/08/15 05:32:32;;;;;;;4.82;1.50;;;;;;;;;;5111458;28;20052;-65
2023/08/15 05:34:59;;;;;;;3.30;1.13;;;;;;;;;;5112234;28;20503;-65
2023/08/15 05:37:28;;;;;;;2.40;1.00;;;;;;;;;;5112028;27;20062;-65
2023/08/15 05:39:55;;;;;;;2.88;0.90;;;;;;;;;;5109631;28;20510;-65
2023/08/15 05:42:21;;;;;;;1.50;0.98;;;;;;;;;;5105259;28;20062;-65
2023/08/15 05:44:50;;;;;;;3.83;1.50;;;;;;;;;;5111233;28;20047;-65
2023/08/15 05:47:19;;;;;;;3.13;1.13;;;;;;;;;;5110103;28;20052;-64
2023/08/15 05:49:46;;;;;;;2.42;1.50;;;;;;;;;;5111414;28;20047;-65
2023/08/15 05:52:13;;;;;;;4.65;1.33;;;;;;;;;;5108348;28;20075;-64
2023/08/15 05:54:40;;;;;;;2.22;1.10;;;;;;;;;;5110402;28;20059;-65
2023/08/15 05:57:07;;;;;;;2.72;1.20;;;;;;;;;;5107862;28;20047;-64
2023/08/15 05:59:34;;;;;;;2.42;1.08;;;;;;;;;;5109815;28;20063;-64
2023/08/15 06:02:02;;;;;;;2.20;1.10;;;;;;;;;;5110923;28;20055;-64
2023/08/15 06:04:31;;;;;;;3.50;1.77;;;;;;;;;;5111737;28;20052;-64
2023/08/15 06:06:58;;;;;;;5.53;1.55;;;;;;;;;;5107609;28;20055;-64
2023/08/15 06:09:24;;;;;;;4.15;1.35;;;;;;;;;;5109734;27;20052;-65
2023/08/15 06:11:51;;;;;;;8.65;3.95;;;;;;;;;;5110789;28;20419;-65
2023/08/15 06:14:18;;;;;;;3.85;1.73;;;;;;;;;;5110008;28;20055;-64
2023/08/15 06:16:45;;;;;;;3.85;1.80;;;;;;;;;;5109912;28;20051;-64
2023/08/15 06:19:13;;;;;;;3.20;1.88;;;;;;;;;;5109772;28;20051;-65
2023/08/15 06:21:41;;;;;;;3.15;1.50;;;;;;;;;;5111340;28;20060;-65
2023/08/15 06:24:08;;;;;;;2.08;0.95;;;;;;;;;;5114022;28;20476;-65
2023/08/15 06:26:35;;;;;;;3.65;1.60;;;;;;;;;;5113547;28;20056;-64
2023/08/15 06:29:02;;;;;;;3.25;1.23;;;;;;;;;;5113371;28;20052;-64
2023/08/15 06:31:28;;;;;;;4.40;1.42;;;;;;;;;;5110801;28;20358;-65
2023/08/15 06:33:55;;;;;;;2.50;1.20;;;;;;;;;;5113216;28;20449;-65
2023/08/15 06:36:23;;;;;;;2.78;1.42;;;;;;;;;;5111093;28;20074;-65
2023/08/15 06:38:50;;;;;;;3.05;1.40;;;;;;;;;;5113395;28;20047;-65
2023/08/15 06:41:17;;;;;;;5.25;1.50;;;;;;;;;;5111142;28;20063;-64
2023/08/15 06:43:44;;;;;;;3.35;1.30;;;;;;;;;;5113054;28;20055;-65
2023/08/15 06:46:11;;;;;;;2.78;1.30;;;;;;;;;;5113098;28;20420;-64
2023/08/15 06:48:38;;;;;;;2.58;1.30;;;;;;;;;;5112894;28;20055;-65
2023/08/15 06:51:05;;;;;;;2.78;1.02;;;;;;;;;;5110638;28;20051;-64
2023/08/15 06:53:33;;;;;;;2.58;0.95;;;;;;;;;;5112295;28;20063;-64
2023/08/15 06:56:00;;;;;;;2.08;0.80;;;;;;;;;;5113066;28;20071;-64
2023/08/15 06:58:27;;;;;;;2.75;1.08;;;;;;;;;;5113112;28;20059;-64
2023/08/15 07:00:55;;;;;;;1.60;0.80;;;;;;;;;;5112662;28;20047;-64
2023/08/15 07:03:21;;;;;;;1.60;1.10;;;;;;;;;;5112851;28;20047;-64
2023/08/15 07:05:49;;;;;;;1.85;0.70;;;;;;;;;;5110126;28;20047;-64
2023/08/15 07:08:17;;;;;;;1.88;0.98;;;;;;;;;;5112804;28;20527;-64
2023/08/15 07:10:45;;;;;;;1.75;0.90;;;;;;;;;;5112954;28;20395;-64
2023/08/15 07:13:12;;;;;;;2.83;0.95;;;;;;;;;;5112796;28;20056;-64
2023/08/15 07:15:39;;;;;;;1.42;0.70;;;;;;;;;;5112915;28;20500;-64
2023/08/15 07:18:06;;;;;;;1.63;0.82;;;;;;;;;;5112584;28;20416;-64
2023/08/15 07:20:32;;;;;;;1.40;0.70;;;;;;;;;;5109959;28;20054;-64
2023/08/15 07:22:59;;;;;;;1.50;0.60;;;;;;;;;;5094865;28;20056;-63
2023/08/15 07:25:26;;;;;;;1.38;0.70;;;;;;;;;;5111852;28;20397;-64
2023/08/15 07:27:54;;;;;;;1.20;0.52;;;;;;;;;;5112563;28;20052;-64
2023/08/15 07:30:21;;;;;;;1.45;0.85;;;;;;;;;;5112691;28;20047;-64
2023/08/15 07:32:48;;;;;;;1.00;0.57;;;;;;;;;;5112608;28;20059;-64
2023/08/15 07:35:15;;;;;;;1.25;0.80;;;;;;;;;;5109641;28;20056;-64
2023/08/15 07:37:42;;;;;;;1.85;0.75;;;;;;;;;;5111867;28;20403;-64
2023/08/15 07:40:09;;;;;;;1.63;0.70;;;;;;;;;;5112117;28;20047;-64
2023/08/15 07:42:36;;;;;;;1.08;0.60;;;;;;;;;;5114031;28;20051;-63
2023/08/15 07:45:07;;;;;;;1.13;0.52;;;;;;;;;;5133210;28;20043;-63
2023/08/15 07:47:36;;;;;;;1.20;0.68;;;;;;;;;;5132678;28;20480;-64
2023/08/15 07:50:12;;;;;;;0.93;0.52;;;;;;;;;;5124199;28;20048;-63
2023/08/15 07:52:39;;;;;;;1.30;0.77;;;;;;;;;;5112238;28;20055;-63
2023/08/15 07:55:07;;;;;;;2.63;0.60;;;;;;;;;;5112587;28;20504;-63
2023/08/15 07:57:33;;;;;;;0.98;0.60;;;;;;;;;;5112052;28;20052;-62
2023/08/15 08:00:00;;;;;;;1.02;0.73;;;;;;;;;;5112122;28;20111;-63
2023/08/15 08:02:28;;;;;;;0.73;0.40;;;;;;;;;;5112376;28;20055;-63
2023/08/15 08:04:55;;;;;;;2.28;0.50;;;;;;;;;;5112770;28;20055;-63
2023/08/15 08:07:22;;;;;;;1.20;0.60;;;;;;;;;;5115831;28;20066;-63
2023/08/15 08:09:49;;;;;;;2.25;1.38;;;;;;;;;;5116211;28;20052;-63
2023/08/15 08:12:16;;;;;;;1.70;1.13;;;;;;;;;;5115768;28;20153;-63
2023/08/15 08:14:43;;;;;;;2.40;1.23;;;;;;;;;;5116233;28;20058;-62
2023/08/15 08:17:09;;;;;;;2.42;1.20;;;;;;;;;;5115976;28;20062;-63
2023/08/15 08:19:38;;;;;;;3.25;1.83;;;;;;;;;;5113906;28;20077;-63
2023/08/15 08:22:04;;;;;;;2.92;2.30;;;;;;;;;;5115804;28;20055;-63
2023/08/15 08:24:31;;;;;;;3.20;2.05;;;;;;;;;;5115877;28;20047;-63
2023/08/15 08:26:58;;;;;;;3.15;1.88;;;;;;;;;;5115485;28;20060;-62
2023/08/15 08:29:25;;;;;;;3.08;2.08;;;;;;;;;;5115030;28;20047;-63
2023/08/15 08:31:51;;;;;;;3.72;2.13;;;;;;;;;;5115042;28;20411;-62
2023/08/15 08:34:18;;;;;;;5.50;1.95;;;;;;;;;;5112846;28;20047;-63
2023/08/15 08:36:46;;;;;;;3.35;2.08;;;;;;;;;;5115517;28;20058;-62
2023/08/15 08:39:13;;;;;;;4.18;2.80;;;;;;;;;;5115628;28;20055;-62
2023/08/15 08:41:41;;;;;;;3.70;2.30;;;;;;;;;;5115745;28;20384;-62
2023/08/15 08:44:08;;;;;;;3.63;2.10;;;;;;;;;;5130191;27;20055;-62
2023/08/15 08:46:35;;;;;;;3.13;2.13;;;;;;;;;;5135797;27;20055;-62
2023/08/15 08:49:04;;;;;;;3.45;2.28;;;;;;;;;;5125164;27;20464;-62
2023/08/15 08:51:32;;;;;;;3.88;2.53;;;;;;;;;;5115592;28;20044;-62
2023/08/15 08:54:01;;;;;;;2.83;1.95;;;;;;;;;;5115524;28;20055;-62
2023/08/15 08:56:28;;;;;;;4.33;1.83;;;;;;;;;;5114968;28;20063;-61
2023/08/15 08:58:59;;;;;;;3.22;2.08;;;;;;;;;;5115558;28;20058;-64
2023/08/15 09:01:28;;;;;;;3.10;2.03;;;;;;;;;;5111713;28;20055;-61
2023/08/15 09:03:55;;;;;;;2.67;1.57;;;;;;;;;;5113288;28;20492;-62
2023/08/15 09:06:22;;;;;;;4.53;2.38;;;;;;;;;;5114999;28;20477;-62
2023/08/15 09:08:49;;;;;;;5.35;2.63;;;;;;;;;;5115121;28;20400;-62
2023/08/15 09:11:17;;;;;;;4.47;2.33;;;;;;;;;;5114815;28;20054;-62
2023/08/15 09:13:46;;;;;;;6.05;2.92;;;;;;;;;;5114994;28;20063;-62
2023/08/15 09:16:13;;;;;;;5.35;3.17;;;;;;;;;;5112959;28;20048;-62
2023/08/15 09:18:40;;;;;;;4.38;2.28;;;;;;;;;;5113797;28;20390;-61
2023/08/15 09:21:06;;;;;;;5.50;3.10;;;;;;;;;;5112678;28;20142;-61
2023/08/15 09:23:33;;;;;;;4.00;2.60;;;;;;;;;;5114654;28;20067;-62
2023/08/15 09:26:11;;;;;;;4.10;2.30;;;;;;;;;;5114546;28;20062;-62
2023/08/15 09:28:41;;;;;;;4.63;3.00;;;;;;;;;;5114862;28;20055;-61
2023/08/15 09:31:10;;;;;;;4.55;2.65;;;;;;;;;;5114665;28;20491;-61
2023/08/15 09:33:37;;;;;;;4.22;2.55;;;;;;;;;;5111579;28;20054;-62
2023/08/15 09:36:05;;;;;;;4.35;2.75;;;;;;;;;;5114109;28;20055;-62
2023/08/15 09:38:32;;;;;;;4.35;2.78;;;;;;;;;;5114498;28;20488;-62
2023/08/15 09:40:59;;;;;;;4.60;2.92;;;;;;;;;;5114004;28;20400;-62
2023/08/15 09:43:26;;;;;;;2.83;2.10;;;;;;;;;;5113621;28;20048;-61
2023/08/15 09:45:54;;;;;;;5.72;2.60;;;;;;;;;;5113782;28;20060;-61
2023/08/15 09:48:21;;;;;;;4.43;2.40;;;;;;;;;;5111443;28;20480;-62
2023/08/15 09:50:49;;;;;;;4.07;2.60;;;;;;;;;;5113794;28;20051;-62
2023/08/15 09:53:15;;;;;;;4.22;2.22;;;;;;;;;;5113814;28;20051;-62
2023/08/15 09:55:42;;;;;;;3.28;2.63;;;;;;;;;;5113908;28;20396;-61
2023/08/15 09:58:09;;;;;;;3.65;2.38;;;;;;;;;;5113913;28;20062;-62
2023/08/15 10:00:36;;;;;;;4.72;2.40;;;;;;;;;;5113674;28;20484;-62
2023/08/15 10:03:10;;;;;;;4.57;2.10;;;;;;;;;;5110866;28;20055;-62
2023/08/15 10:05:37;;;;;;;3.95;2.70;;;;;;;;;;5112970;28;20049;-62
2023/08/15 10:08:04;;;;;;;3.45;2.10;;;;;;;;;;5114060;28;20059;-62
2023/08/15 10:10:33;;;;;;;3.00;2.20;;;;;;;;;;5113415;28;20052;-62
2023/08/15 10:13:01;;;;;;;2.78;1.92;;;;;;;;;;5113735;28;20051;-62
2023/08/15 10:15:30;;;;;;;4.75;2.72;;;;;;;;;;5113839;28;20047;-62
2023/08/15 10:17:57;;;;;;;3.38;2.15;;;;;;;;;;5111125;28;20531;-62
2023/08/15 10:20:26;;;;;;;6.90;2.63;;;;;;;;;;5112705;28;20048;-62
2023/08/15 10:22:54;;;;;;;3.80;2.00;;;;;;;;;;5113605;28;20051;-62
2023/08/15 10:25:33;;;;;;;4.53;2.05;;;;;;;;;;5113351;28;20488;-62
2023/08/15 10:28:03;;;;;;;3.15;1.90;;;;;;;;;;5113235;28;20476;-62
2023/08/15 10:30:33;;;;;;;2.85;1.77;;;;;;;;;;5113184;28;20052;-62
2023/08/15 10:33:00;;;;;;;3.25;2.25;;;;;;;;;;5112204;28;20063;-62
2023/08/15 10:35:32;;;;;;;3.97;1.83;;;;;;;;;;5112333;28;20388;-63
2023/08/15 10:37:59;;;;;;;2.80;1.50;;;;;;;;;;5113381;28;20059;-62
2023/08/15 10:40:37;;;;;;;2.35;1.88;;;;;;;;;;5113500;28;20059;-62
2023/08/15 10:43:05;;;;;;;;;;;;;;;;;;5113741;28;20074;-62
2023/08/15 10:45:32;;;;;;;2.38;1.40;;;;;;;;;;5112867;28;19920;-62
2023/08/15 10:48:00;;;;;;;4.05;1.77;;;;;;;;;;5111268;28;20048;-62
2023/08/15 10:50:27;;;;;;;3.13;1.45;;;;;;;;;;5112690;28;20047;-62
2023/08/15 10:52:59;;;;;;;2.60;1.27;;;;;;;;;;5113226;28;20052;-62
2023/08/15 10:55:27;;;;;;;3.40;1.52;;;;;;;;;;5112808;28;20055;-62
2023/08/15 10:57:55;;;;;;;2.38;1.38;;;;;;;;;;5113220;28;20403;-62
2023/08/15 11:00:22;;;;;;;2.55;1.52;;;;;;;;;;5112922;28;20056;-62
2023/08/15 11:02:51;;;;;;;2.60;1.48;;;;;;;;;;5110560;28;20052;-62
2023/08/15 11:05:19;;;;;;;1.98;1.27;;;;;;;;;;5111591;28;20078;-62
2023/08/15 11:07:46;;;;;;;2.25;1.25;;;;;;;;;;5113008;28;20054;-62
2023/08/15 11:10:17;;;;;;;3.38;1.63;;;;;;;;;;5112795;28;20048;-61
2023/08/15 11:12:48;;;;;;;2.92;1.55;;;;;;;;;;5111024;28;20485;-61
2023/08/15 11:15:15;;;;;;;2.00;1.40;;;;;;;;;;5113197;28;20480;-61
2023/08/15 11:17:47;;;;;;;3.13;1.60;;;;;;;;;;5112255;28;20406;-61
2023/08/15 11:20:18;;;;;;;3.58;1.27;;;;;;;;;;5111225;28;20059;-61
2023/08/15 11:22:55;;;;;;;5.65;1.70;;;;;;;;;;5112609;28;20052;-61
2023/08/15 11:25:23;;;;;;;2.42;1.17;;;;;;;;;;5112589;28;20052;-61
2023/08/15 11:27:51;;;;;;;3.40;1.20;;;;;;;;;;5112018;28;20052;-59
2023/08/15 11:30:18;;;;;;;1.90;1.42;;;;;;;;;;5112453;28;20051;-61
2023/08/15 11:32:45;;;;;;;3.50;1.42;;;;;;;;;;5112500;28;20047;-61
2023/08/15 11:35:15;;;;;;;1.88;1.00;;;;;;;;;;5110228;28;20063;-61
2023/08/15 11:37:42;;;;;;;3.00;1.50;;;;;;;;;;5112395;28;20052;-61
2023/08/15 11:40:09;;;;;;;3.08;1.10;;;;;;;;;;5116323;28;20048;-61
2023/08/15 11:42:43;;;;;;;2.35;1.48;;;;;;;;;;5116818;28;20495;-60
2023/08/15 11:45:11;;;;;;;2.97;1.27;;;;;;;;;;5116995;28;20062;-60
2023/08/15 11:47:51;;;;;;;3.08;1.38;;;;;;;;;;5115346;28;20047;-60
2023/08/15 11:50:19;;;;;;;1.80;1.10;;;;;;;;;;5116668;28;20071;-61
2023/08/15 11:52:45;;;;;;;1.70;1.00;;;;;;;;;;5116372;28;20058;-60
2023/08/15 11:55:18;;;;;;;2.00;1.00;;;;;;;;;;5116923;28;20400;-61
2023/08/15 11:57:46;;;;;;;1.80;1.20;;;;;;;;;;5116484;28;20062;-60
2023/08/15 12:00:16;;;;;;;1.45;1.00;;;;;;;;;;5116416;28;20400;-60
2023/08/15 12:02:44;;;;;;;2.17;1.30;;;;;;;;;;5113393;28;20054;-60
2023/08/15 12:05:14;;;;;;;2.45;1.27;;;;;;;;;;5116025;28;20058;-60
2023/08/15 12:07:44;;;;;;;1.65;0.80;;;;;;;;;;5115845;28;20047;-60
2023/08/15 12:10:12;;;;;;;3.83;1.30;;;;;;;;;;5115784;28;20079;-60
2023/08/15 12:12:39;;;;;;;3.10;1.30;;;;;;;;;;5113635;28;20392;-60
2023/08/15 12:15:08;;;;;;;2.45;1.20;;;;;;;;;;5115172;28;20488;-60
2023/08/15 12:17:35;;;;;;;1.40;0.82;;;;;;;;;;5113918;28;20052;-60
2023/08/15 12:20:03;;;;;;;2.60;1.25;;;;;;;;;;5113765;28;20064;-60
2023/08/15 12:22:31;;;;;;;3.35;1.25;;;;;;;;;;5115520;28;20052;-60
2023/08/15 12:24:57;;;;;;;2.53;1.15;;;;;;;;;;5115390;28;20074;-60
2023/08/15 12:27:24;;;;;;;1.77;1.35;;;;;;;;;;5115266;28;20051;-60
2023/08/15 12:29:51;;;;;;;1.88;1.05;;;;;;;;;;5115253;28;20080;-60
2023/08/15 12:32:19;;;;;;;3.90;1.42;;;;;;;;;;5112808;28;20060;-60
2023/08/15 12:34:46;;;;;;;3.28;1.30;;;;;;;;;;5115412;28;20060;-61
2023/08/15 12:37:13;;;;;;;2.40;0.95;;;;;;;;;;5115498;28;20054;-61
2023/08/15 12:39:39;;;;;;;3.35;1.20;;;;;;;;;;5113437;28;20407;-60
2023/08/15 12:42:07;;;;;;;3.92;1.73;;;;;;;;;;5114880;28;20058;-60
2023/08/15 12:44:33;;;;;;;3.30;1.15;;;;;;;;;;5112160;28;20427;-61
2023/08/15 12:47:00;;;;;;;2.50;1.00;;;;;;;;;;5113565;28;20423;-61
2023/08/15 12:49:28;;;;;;;2.75;1.25;;;;;;;;;;5112536;28;20075;-61
2023/08/15 12:51:55;;;;;;;2.25;1.02;;;;;;;;;;5114804;28;20058;-61
2023/08/15 12:54:22;;;;;;;2.03;1.35;;;;;;;;;;5113784;28;20503;-61
2023/08/15 12:56:49;;;;;;;4.15;1.08;;;;;;;;;;5115061;28;20066;-61
2023/08/15 12:59:16;;;;;;;1.88;0.70;;;;;;;;;;5115342;28;20060;-60
2023/08/15 13:01:43;;;;;;;2.40;0.95;;;;;;;;;;5115099;28;20058;-60
2023/08/15 13:04:12;;;;;;;3.85;1.00;;;;;;;;;;5112064;28;20056;-60
2023/08/15 13:06:41;;;;;;;1.40;1.08;;;;;;;;;;5114904;28;20056;-61
2023/08/15 13:09:08;;;;;;;1.77;0.95;;;;;;;;;;5115101;28;20047;-61
2023/08/15 13:11:35;;;;;;;1.55;0.90;;;;;;;;;;5114484;28;20066;-61
2023/08/15 13:14:02;;;;;;;1.75;0.90;;;;;;;;;;5115199;28;20067;-61
2023/08/15 13:16:29;;;;;;;3.45;1.48;;;;;;;;;;5114926;28;20428;-61
2023/08/15 13:18:56;;;;;;;3.08;0.93;;;;;;;;;;5112470;28;20047;-60
2023/08/15 13:21:23;;;;;;;2.30;1.10;;;;;;;;;;5115168;28;20051;-61
2023/08/15 13:23:51;;;;;;;2.53;0.90;;;;;;;;;;5115097;28;20055;-60
2023/08/15 13:26:18;;;;;;;3.50;1.77;;;;;;;;;;5114627;28;20056;-60
2023/08/15 13:28:46;;;;;;;1.38;0.80;;;;;;;;;;5114871;28;20073;-60
2023/08/15 13:31:13;;;;;;;4.82;0.90;;;;;;;;;;5115119;28;20489;-60
2023/08/15 13:33:40;;;;;;;1.98;1.00;;;;;;;;;;5111625;28;20048;-61
2023/08/15 13:36:07;;;;;;;2.63;1.02;;;;;;;;;;5114566;28;20048;-61
2023/08/15 13:38:33;;;;;;;2.42;1.23;;;;;;;;;;5114794;28;20483;-60
2023/08/15 13:41:02;;;;;;;1.92;0.80;;;;;;;;;;5114381;28;20056;-59
2023/08/15 13:43:29;;;;;;;1.70;1.23;;;;;;;;;;5114311;28;20047;-60
2023/08/15 13:45:57;;;;;;;1.30;0.70;;;;;;;;;;5114194;28;20067;-60
2023/08/15 13:48:23;;;;;;;2.33;0.88;;;;;;;;;;5112540;28;20052;-60
2023/08/15 13:50:53;;;;;;;2.30;1.25;;;;;;;;;;5113741;28;20401;-60
2023/08/15 13:53:20;;;;;;;2.05;1.23;;;;;;;;;;5113970;28;20054;-60
2023/08/15 13:55:47;;;;;;;1.23;0.90;;;;;;;;;;5113584;28;20052;-60
2023/08/15 13:58:15;;;;;;;5.28;1.10;;;;;;;;;;5113684;28;20051;-60
2023/08/15 14:00:42;;;;;;;2.67;0.80;;;;;;;;;;5113723;28;20481;-59
2023/08/15 14:03:08;;;;;;;2.85;0.70;;;;;;;;;;5110925;28;20059;-60
2023/08/15 14:05:35;;;;;;;2.72;0.90;;;;;;;;;;5113808;28;20062;-60
2023/08/15 14:08:02;;;;;;;1.67;1.17;;;;;;;;;;5113562;28;20051;-60
2023/08/15 14:10:29;;;;;;;2.47;0.80;;;;;;;;;;5113520;28;20063;-60
2023/08/15 14:12:56;;;;;;;1.50;0.90;;;;;;;;;;5113356;28;20058;-59
2023/08/15 14:15:24;;;;;;;2.67;1.55;;;;;;;;;;5113389;28;20062;-60
2023/08/15 14:17:51;;;;;;;1.75;1.00;;;;;;;;;;5111196;28;20055;-60
2023/08/15 14:20:19;;;;;;;2.47;0.88;;;;;;;;;;5113384;28;20066;-60
2023/08/15 14:22:46;;;;;;;1.37;0.80;;;;;;;;;;5113099;28;20055;-60
2023/08/15 14:25:13;;;;;;;3.03;1.02;;;;;;;;;;5130213;27;20476;-60
2023/08/15 14:27:40;;;;;;;1.85;0.75;;;;;;;;;;5133672;27;20051;-60
2023/08/15 14:30:07;;;;;;;1.17;0.80;;;;;;;;;;5134216;27;20058;-60
2023/08/15 14:32:35;;;;;;;2.22;0.80;;;;;;;;;;5113667;27;20378;-60
2023/08/15 14:35:02;;;;;;;1.50;0.82;;;;;;;;;;5111894;28;20051;-60
2023/08/15 14:37:30;;;;;;;2.33;1.23;;;;;;;;;;5113631;28;20052;-60
2023/08/15 14:39:57;;;;;;;3.13;1.48;;;;;;;;;;5113458;28;20410;-61
2023/08/15 14:42:24;;;;;;;1.88;0.90;;;;;;;;;;5113162;28;20043;-60
2023/08/15 14:44:50;;;;;;;2.22;0.80;;;;;;;;;;5113464;28;20051;-60